createdAt,value
2018-03-29T00:01:03.041Z,70.9
2018-03-29T00:11:02.861Z,60.2
2018-03-29T00:21:02.831Z,65.6
2018-03-29T00:31:02.676Z,64.3
2018-03-29T00:41:03.525Z,66.2
2018-03-29T00:51:03.362Z,70.2
2018-03-29T01:01:03.215Z,63.9
2018-03-29T01:11:03.068Z,66.3
2018-03-29T01:21:02.978Z,62.8
2018-03-29T01:31:02.843Z,59.3
2018-03-29T01:41:02.768Z,60.8
2018-03-29T01:51:02.635Z,61.6
2018-03-29T02:01:03.516Z,61.5
2018-03-29T02:11:03.362Z,61.0
2018-03-29T02:21:03.363Z,58.5
2018-03-29T02:31:03.204Z,56.4
2018-03-29T02:41:03.061Z,54.7
2018-03-29T02:51:02.919Z,58.1
2018-03-29T03:01:03.297Z,62.2
2018-03-29T03:11:03.142Z,64.4
2018-03-29T03:21:03.174Z,60.6
2018-03-29T03:31:03.037Z,63.9
2018-03-29T03:41:02.909Z,67.0
2018-03-29T03:51:02.738Z,74.1
2018-03-29T04:01:03.566Z,63.7
2018-03-29T04:11:03.440Z,69.9
2018-03-29T04:21:03.438Z,67.4
2018-03-29T04:31:02.944Z,62.2
2018-03-29T04:41:02.727Z,65.1
2018-03-29T04:51:03.544Z,54.7
2018-03-29T05:01:03.387Z,62.6
2018-03-29T05:11:03.239Z,57.0
2018-03-29T05:21:03.185Z,60.0
2018-03-29T05:31:03.001Z,56.3
2018-03-29T05:41:02.835Z,58.4
2018-03-29T05:51:02.656Z,59.4
2018-03-29T06:01:03.489Z,60.5
2018-03-29T06:11:03.388Z,64.6
2018-03-29T06:21:03.344Z,59.1
2018-03-29T06:31:03.110Z,66.4
2018-03-29T06:41:02.829Z,60.2
2018-03-29T06:51:02.699Z,58.5
2018-03-29T07:01:03.488Z,58.5
2018-03-29T07:11:03.386Z,55.8
2018-03-29T07:21:03.308Z,57.2
2018-03-29T07:31:03.203Z,61.2
2018-03-29T07:41:03.022Z,64.0
2018-03-29T07:51:02.776Z,70.8
2018-03-29T08:01:03.615Z,74.5
2018-03-29T08:11:03.441Z,69.1
2018-03-29T08:21:03.414Z,60.4
2018-03-29T08:31:03.273Z,47.9
2018-03-29T08:41:03.131Z,47.2
2018-03-29T08:51:02.932Z,49.1
2018-03-29T09:01:02.771Z,52.0
2018-03-29T09:11:03.611Z,46.1
2018-03-29T09:21:03.653Z,37.8
2018-03-29T09:31:03.529Z,42.9
2018-03-29T09:41:03.408Z,44.3
2018-03-29T09:51:03.309Z,34.2
2018-03-29T10:01:03.144Z,22.1
2018-03-29T10:11:03.030Z,22.6
2018-03-29T10:21:03.021Z,22.6
2018-03-29T10:31:02.922Z,26.3
2018-03-29T10:41:02.792Z,26.7
2018-03-29T10:51:03.610Z,27.9
2018-03-29T11:01:03.405Z,22.7
2018-03-29T11:11:03.265Z,21.2
2018-03-29T11:21:03.182Z,19.2
2018-03-29T11:31:03.103Z,20.2
2018-03-29T11:41:03.030Z,21.9
2018-03-29T11:51:02.912Z,21.8
2018-03-29T12:01:02.882Z,17.8
2018-03-29T12:11:02.801Z,20.5
2018-03-29T12:21:02.787Z,19.9
2018-03-29T12:31:03.651Z,20.1
2018-03-29T12:41:03.525Z,17.9
2018-03-29T12:51:03.542Z,17.8
2018-03-29T13:01:03.431Z,18.0
2018-03-29T13:11:03.350Z,22.5
2018-03-29T13:21:03.348Z,23.4
2018-03-29T13:31:03.240Z,24.9
2018-03-29T13:41:03.080Z,31.3
2018-03-29T13:51:02.929Z,27.0
2018-03-29T14:01:02.801Z,26.4
2018-03-29T14:11:03.661Z,26.5
2018-03-29T14:21:03.694Z,28.2
2018-03-29T14:31:03.578Z,29.2
2018-03-29T14:41:03.570Z,30.7
2018-03-29T14:51:03.464Z,30.9
2018-03-29T15:01:03.480Z,32.0
2018-03-29T15:11:03.415Z,32.2
2018-03-29T15:21:03.410Z,35.8
2018-03-29T15:31:03.281Z,33.0
2018-03-29T15:41:03.236Z,34.7
2018-03-29T15:51:03.130Z,37.0
2018-03-29T16:01:03.045Z,33.8
2018-03-29T16:11:02.898Z,33.8
2018-03-29T16:21:02.903Z,39.5
2018-03-29T16:31:02.747Z,39.0
2018-03-29T16:41:03.558Z,39.1
2018-03-29T16:51:03.476Z,38.2
2018-03-29T17:01:03.367Z,38.5
2018-03-29T17:11:03.326Z,43.2
2018-03-29T17:21:03.356Z,44.2
2018-03-29T17:31:03.257Z,40.3
2018-03-29T17:41:03.122Z,38.1
2018-03-29T17:51:03.053Z,44.6
2018-03-29T18:01:02.943Z,53.6
2018-03-29T18:11:02.923Z,45.9
2018-03-29T18:21:03.077Z,57.1
2018-03-29T18:31:02.964Z,49.4
2018-03-29T18:41:02.861Z,69.3
2018-03-29T18:51:03.754Z,64.3
2018-03-29T19:01:03.567Z,71.3
2018-03-29T19:11:03.522Z,67.4
2018-03-29T19:21:03.517Z,56.8
2018-03-29T19:31:03.435Z,79.7
2018-03-29T19:41:03.347Z,128.2
2018-03-29T19:51:03.150Z,149.6
2018-03-29T20:01:03.126Z,128.9
2018-03-29T20:11:03.177Z,135.6
2018-03-29T20:21:03.126Z,125.5
2018-03-29T20:31:03.111Z,108.6
2018-03-29T20:41:02.977Z,111.1
2018-03-29T20:51:02.783Z,107.0
2018-03-29T21:01:03.627Z,112.8
2018-03-29T21:11:03.498Z,100.2
2018-03-29T21:21:03.481Z,67.1
2018-03-29T21:31:03.334Z,61.6
2018-03-29T21:41:03.212Z,52.9
2018-03-29T21:51:03.153Z,52.0
2018-03-29T22:01:02.998Z,53.4
2018-03-29T22:11:02.845Z,56.4
2018-03-29T22:21:02.792Z,47.9
2018-03-29T22:31:03.631Z,44.8
2018-03-29T22:41:03.466Z,43.6
2018-03-29T22:51:03.311Z,39.4
2018-03-29T23:01:03.150Z,44.1
2018-03-29T23:11:03.008Z,42.2
2018-03-29T23:21:03.015Z,34.4
2018-03-29T23:31:02.868Z,35.6
2018-03-29T23:41:03.686Z,33.2
2018-03-29T23:51:03.527Z,50.0
